Time,TemperatureF,DewpointF,PressureIn,WindDirection,WindDirectionDegrees,WindSpeedMPH,WindSpeedGustMPH,Humidity,HourlyPrecipIn,Conditions,Clouds,dailyrainin,SoftwareType,DateUTC
2013-08-02 00:03:00,53.2,42.3,29.91,WSW,248,2.2,2.6,66,0.00,,,0.00,WUHU216TE923,2013-08-02 07:03:00,
2013-08-02 00:08:00,53.2,42.3,29.91,SW,225,2.2,4.2,66,0.00,,,0.00,WUHU216TE923,2013-08-02 07:08:00,
2013-08-02 00:13:00,53.2,42.3,29.91,SW,225,2.2,4.2,66,0.00,,,0.00,WUHU216TE923,2013-08-02 07:13:00,
2013-08-02 00:18:00,52.9,42.0,29.91,WSW,248,2.3,4.2,66,0.00,,,0.00,WUHU216TE923,2013-08-02 07:18:00,
2013-08-02 00:23:00,53.1,42.2,29.91,SW,225,3.0,4.2,66,0.00,,,0.00,WUHU216TE923,2013-08-02 07:23:00,
2013-08-02 00:28:00,53.1,42.2,29.91,SSE,158,3.8,3.8,66,0.00,,,0.00,WUHU216TE923,2013-08-02 07:28:00,
2013-08-02 00:33:00,52.7,41.8,29.91,West,270,4.0,6.6,66,0.00,,,0.00,WUHU216TE923,2013-08-02 07:33:00,
2013-08-02 00:38:00,52.7,41.8,29.91,SSE,158,3.6,6.6,66,0.00,,,0.00,WUHU216TE923,2013-08-02 07:38:00,
2013-08-02 00:43:00,52.5,41.6,29.91,WSW,248,3.3,3.9,66,0.00,,,0.00,WUHU216TE923,2013-08-02 07:43:00,
2013-08-02 00:48:00,52.3,41.4,29.91,WNW,293,3.3,4.6,66,0.00,,,0.00,WUHU216TE923,2013-08-02 07:48:00,
2013-08-02 00:53:00,52.3,41.8,29.91,WSW,248,3.8,4.6,67,0.00,,,0.00,WUHU216TE923,2013-08-02 07:53:00,
2013-08-02 00:58:00,52.3,41.8,29.91,WSW,248,3.9,5.0,67,0.00,,,0.00,WUHU216TE923,2013-08-02 07:58:00,
2013-08-02 01:03:00,52.3,41.8,29.91,WSW,248,4.2,5.0,67,0.00,,,0.00,WUHU216TE923,2013-08-02 08:03:00,
2013-08-02 01:08:00,52.2,41.7,29.91,South,180,4.4,4.9,67,0.00,,,0.00,WUHU216TE923,2013-08-02 08:08:00,
2013-08-02 01:13:00,52.0,41.5,29.91,SW,225,5.2,7.2,67,0.00,,,0.00,WUHU216TE923,2013-08-02 08:13:00,
2013-08-02 01:18:00,52.0,41.5,29.92,West,270,5.0,7.2,67,0.00,,,0.00,WUHU216TE923,2013-08-02 08:18:00,
2013-08-02 01:23:00,51.8,41.3,29.92,SSW,203,4.3,5.0,67,0.00,,,0.00,WUHU216TE923,2013-08-02 08:23:00,
2013-08-02 01:28:00,51.8,41.3,29.92,WSW,248,4.4,4.4,67,0.00,,,0.00,WUHU216TE923,2013-08-02 08:28:00,
2013-08-02 01:33:00,51.8,41.3,29.92,SW,225,4.9,6.0,67,0.00,,,0.00,WUHU216TE923,2013-08-02 08:33:00,
2013-08-02 01:43:00,51.6,41.5,29.91,West,270,4.3,5.0,68,0.00,,,0.00,WUHU216TE923,2013-08-02 08:43:00,
2013-08-02 01:48:00,51.4,41.3,29.91,SW,225,4.3,7.8,68,0.00,,,0.00,WUHU216TE923,2013-08-02 08:48:00,
2013-08-02 01:53:00,51.4,41.3,29.91,SW,225,4.4,7.8,68,0.00,,,0.00,WUHU216TE923,2013-08-02 08:53:00,
2013-08-02 01:58:00,51.4,41.3,29.92,WSW,248,4.5,7.1,68,0.00,,,0.00,WUHU216TE923,2013-08-02 08:58:00,
2013-08-02 02:03:00,51.3,41.2,29.92,SW,225,5.0,5.1,68,0.00,,,0.00,WUHU216TE923,2013-08-02 09:03:00,
2013-08-02 02:08:00,51.3,41.2,29.92,WSW,248,4.8,5.1,68,0.00,,,0.00,WUHU216TE923,2013-08-02 09:08:00,
2013-08-02 02:13:00,51.3,41.2,29.92,WNW,293,4.5,5.4,68,0.00,,,0.00,WUHU216TE923,2013-08-02 09:13:00,
2013-08-02 02:18:00,51.3,41.2,29.92,SW,225,4.4,5.4,68,0.00,,,0.00,WUHU216TE923,2013-08-02 09:18:00,
2013-08-02 02:23:00,51.1,41.0,29.92,SW,225,4.5,8.1,68,0.00,,,0.00,WUHU216TE923,2013-08-02 09:23:00,
2013-08-02 02:28:00,51.1,41.0,29.92,SSW,203,4.6,8.1,68,0.00,,,0.00,WUHU216TE923,2013-08-02 09:28:00,
2013-08-02 02:33:00,50.9,40.8,29.92,SW,225,4.4,4.6,68,0.00,,,0.00,WUHU216TE923,2013-08-02 09:33:00,
2013-08-02 02:38:00,50.9,40.8,29.92,South,180,4.5,7.1,68,0.00,,,0.00,WUHU216TE923,2013-08-02 09:38:00,
2013-08-02 02:43:00,50.9,41.2,29.92,SSW,203,4.4,7.1,69,0.00,,,0.00,WUHU216TE923,2013-08-02 09:43:00,
2013-08-02 02:48:00,50.7,41.0,29.92,SW,225,4.3,6.9,69,0.00,,,0.00,WUHU216TE923,2013-08-02 09:48:00,
2013-08-02 02:53:00,50.9,41.2,29.92,WSW,248,4.4,4.4,69,0.00,,,0.00,WUHU216TE923,2013-08-02 09:53:00,
2013-08-02 02:58:00,50.9,41.2,29.92,SW,225,4.5,5.3,69,0.00,,,0.00,WUHU216TE923,2013-08-02 09:58:00,
2013-08-02 03:03:00,50.7,41.0,29.92,SW,225,4.6,6.0,69,0.00,,,0.00,WUHU216TE923,2013-08-02 10:03:00,
2013-08-02 03:08:00,50.7,41.0,29.92,South,180,4.6,6.0,69,0.00,,,0.00,WUHU216TE923,2013-08-02 10:08:00,
2013-08-02 03:13:00,50.7,41.0,29.92,South,180,4.6,4.9,69,0.00,,,0.00,WUHU216TE923,2013-08-02 10:13:00,
2013-08-02 03:18:00,50.7,41.4,29.91,WSW,248,4.5,4.9,70,0.00,,,0.00,WUHU216TE923,2013-08-02 10:18:00,
2013-08-02 03:23:00,50.7,41.4,29.91,West,270,4.9,5.2,70,0.00,,,0.00,WUHU216TE923,2013-08-02 10:23:00,
2013-08-02 03:28:00,50.7,41.4,29.91,West,270,5.0,5.9,70,0.00,,,0.00,WUHU216TE923,2013-08-02 10:28:00,
2013-08-02 03:33:00,50.7,41.4,29.91,WSW,248,4.9,5.9,70,0.00,,,0.00,WUHU216TE923,2013-08-02 10:33:00,
2013-08-02 03:38:00,50.7,41.4,29.92,WSW,248,5.2,6.8,70,0.00,,,0.00,WUHU216TE923,2013-08-02 10:38:00,
2013-08-02 03:43:00,50.7,41.4,29.92,WSW,248,4.7,6.8,70,0.00,,,0.00,WUHU216TE923,2013-08-02 10:43:00,
2013-08-02 03:48:00,50.9,41.9,29.92,SW,225,4.7,6.3,71,0.00,,,0.00,WUHU216TE923,2013-08-02 10:48:00,
2013-08-02 03:53:00,50.7,41.7,29.92,SW,225,4.1,7.9,71,0.00,,,0.00,WUHU216TE923,2013-08-02 10:53:00,
2013-08-02 03:58:00,50.9,41.9,29.92,SSW,203,4.3,7.9,71,0.00,,,0.00,WUHU216TE923,2013-08-02 10:58:00,
2013-08-02 04:03:00,50.7,41.7,29.92,SW,225,4.6,4.6,71,0.00,,,0.00,WUHU216TE923,2013-08-02 11:03:00,
2013-08-02 04:08:00,50.7,41.7,29.92,WSW,248,4.3,6.3,71,0.00,,,0.00,WUHU216TE923,2013-08-02 11:08:00,
2013-08-02 04:13:00,50.7,41.7,29.92,WSW,248,4.4,6.3,71,0.00,,,0.00,WUHU216TE923,2013-08-02 11:13:00,
2013-08-02 04:18:00,50.7,41.7,29.92,West,270,4.8,6.0,71,0.00,,,0.00,WUHU216TE923,2013-08-02 11:18:00,
2013-08-02 04:23:00,50.5,41.5,29.92,WSW,248,4.6,5.0,71,0.00,,,0.00,WUHU216TE923,2013-08-02 11:23:00,
2013-08-02 04:28:00,50.5,41.5,29.92,SSW,203,4.2,5.0,71,0.00,,,0.00,WUHU216TE923,2013-08-02 11:28:00,
2013-08-02 04:33:00,50.5,41.5,29.92,WSW,248,4.0,4.2,71,0.00,,,0.00,WUHU216TE923,2013-08-02 11:33:00,
2013-08-02 04:43:00,50.5,41.9,29.92,SW,225,3.5,5.3,72,0.00,,,0.00,WUHU216TE923,2013-08-02 11:43:00,
2013-08-02 04:48:00,50.5,41.9,29.92,South,180,3.5,6.4,72,0.00,,,0.00,WUHU216TE923,2013-08-02 11:48:00,
2013-08-02 04:53:00,50.5,41.9,29.92,SSW,203,3.8,6.7,72,0.00,,,0.00,WUHU216TE923,2013-08-02 11:53:00,
2013-08-02 04:58:00,50.5,41.9,29.92,WSW,248,4.0,6.7,72,0.00,,,0.00,WUHU216TE923,2013-08-02 11:58:00,
2013-08-02 05:03:00,50.5,41.9,29.92,WSW,248,3.5,4.8,72,0.00,,,0.00,WUHU216TE923,2013-08-02 12:03:00,
2013-08-02 05:08:00,50.5,41.9,29.92,WSW,248,3.1,3.5,72,0.00,,,0.00,WUHU216TE923,2013-08-02 12:08:00,
2013-08-02 05:13:00,50.5,41.9,29.92,West,270,3.4,3.4,72,0.00,,,0.00,WUHU216TE923,2013-08-02 12:13:00,
2013-08-02 05:18:00,50.5,41.9,29.92,WSW,248,3.8,5.2,72,0.00,,,0.00,WUHU216TE923,2013-08-02 12:18:00,
2013-08-02 05:23:00,50.5,41.9,29.92,SW,225,3.8,5.7,72,0.00,,,0.00,WUHU216TE923,2013-08-02 12:23:00,
2013-08-02 05:28:00,50.4,41.8,29.92,WSW,248,4.0,5.9,72,0.00,,,0.00,WUHU216TE923,2013-08-02 12:28:00,
2013-08-02 05:33:00,50.4,41.8,29.92,SSE,158,3.9,5.9,72,0.00,,,0.00,WUHU216TE923,2013-08-02 12:33:00,
2013-08-02 05:38:00,50.4,41.8,29.93,WSW,248,3.8,8.5,72,0.00,,,0.00,WUHU216TE923,2013-08-02 12:38:00,
2013-08-02 05:43:00,50.2,41.6,29.93,WSW,248,3.7,8.5,72,0.00,,,0.00,WUHU216TE923,2013-08-02 12:43:00,
2013-08-02 05:49:00,50.2,41.6,29.93,SW,225,3.7,5.0,72,0.00,,,0.00,WUHU216TE923,2013-08-02 12:49:00,
2013-08-02 05:54:00,50.2,41.6,29.93,WSW,248,4.4,7.8,72,0.00,,,0.00,WUHU216TE923,2013-08-02 12:54:00,
2013-08-02 05:59:00,50.2,41.6,29.92,WSW,248,4.5,7.8,72,0.00,,,0.00,WUHU216TE923,2013-08-02 12:59:00,
2013-08-02 06:04:00,50.2,41.6,29.92,SW,225,4.8,5.9,72,0.00,,,0.00,WUHU216TE923,2013-08-02 13:04:00,
2013-08-02 06:09:00,50.2,41.6,29.92,SSW,203,4.6,5.9,72,0.00,,,0.00,WUHU216TE923,2013-08-02 13:09:00,
2013-08-02 06:14:00,50.2,41.6,29.92,SSW,203,4.6,5.0,72,0.00,,,0.00,WUHU216TE923,2013-08-02 13:14:00,
2013-08-02 06:19:00,50.2,41.6,29.93,WNW,293,4.7,5.0,72,0.00,,,0.00,WUHU216TE923,2013-08-02 13:19:00,
2013-08-02 06:24:00,50.0,41.4,29.93,SW,225,4.3,4.9,72,0.00,,,0.00,WUHU216TE923,2013-08-02 13:24:00,
2013-08-02 06:29:00,49.8,41.2,29.93,SW,225,3.8,4.9,72,0.00,,,0.00,WUHU216TE923,2013-08-02 13:29:00,
2013-08-02 06:33:00,49.6,41.4,29.93,WSW,248,3.9,9.2,73,0.00,,,0.00,WUHU216TE923,2013-08-02 13:33:00,
2013-08-02 06:39:00,49.6,41.4,29.93,SSW,203,4.2,9.2,73,0.00,,,0.00,WUHU216TE923,2013-08-02 13:39:00,
2013-08-02 06:44:00,49.6,41.4,29.93,NW,315,4.4,4.4,73,0.00,,,0.00,WUHU216TE923,2013-08-02 13:44:00,
2013-08-02 06:49:00,49.8,41.6,29.93,SSW,203,4.6,8.4,73,0.00,,,0.00,WUHU216TE923,2013-08-02 13:49:00,
2013-08-02 06:54:00,49.8,41.6,29.93,West,270,4.4,8.4,73,0.00,,,0.00,WUHU216TE923,2013-08-02 13:54:00,
2013-08-02 06:59:00,50.0,41.8,29.93,SW,225,4.6,5.0,73,0.00,,,0.00,WUHU216TE923,2013-08-02 13:59:00,
2013-08-02 07:04:00,50.0,41.8,29.93,WSW,248,4.7,5.8,73,0.00,,,0.00,WUHU216TE923,2013-08-02 14:04:00,
2013-08-02 07:08:00,50.2,42.0,29.93,SSW,203,4.4,5.8,73,0.00,,,0.00,WUHU216TE923,2013-08-02 14:08:00,
2013-08-02 07:14:00,50.4,42.2,29.93,SSW,203,4.2,8.6,73,0.00,,,0.00,WUHU216TE923,2013-08-02 14:14:00,
2013-08-02 07:19:00,50.5,42.3,29.93,South,180,4.7,8.6,73,0.00,,,0.00,WUHU216TE923,2013-08-02 14:19:00,
2013-08-02 07:24:00,50.7,42.4,29.93,SSE,158,4.5,5.4,73,0.00,,,0.00,WUHU216TE923,2013-08-02 14:24:00,
2013-08-02 07:29:00,50.9,42.6,29.93,WSW,248,4.1,4.8,73,0.00,,,0.00,WUHU216TE923,2013-08-02 14:29:00,
2013-08-02 07:34:00,51.1,42.8,29.93,South,180,4.2,5.4,73,0.00,,,0.00,WUHU216TE923,2013-08-02 14:34:00,
2013-08-02 07:44:00,51.4,42.8,29.94,WSW,248,4.2,6.8,72,0.00,,,0.00,WUHU216TE923,2013-08-02 14:44:00,
2013-08-02 07:49:00,51.6,43.0,29.94,South,180,3.9,4.6,72,0.00,,,0.00,WUHU216TE923,2013-08-02 14:49:00,
2013-08-02 07:54:00,52.0,43.4,29.94,WSW,248,3.5,8.9,72,0.00,,,0.00,WUHU216TE923,2013-08-02 14:54:00,
2013-08-02 07:59:00,52.2,43.5,29.94,South,180,4.0,8.9,72,0.00,,,0.00,WUHU216TE923,2013-08-02 14:59:00,
2013-08-02 08:04:00,52.3,43.6,29.94,West,270,4.4,5.0,72,0.00,,,0.00,WUHU216TE923,2013-08-02 15:04:00,
2013-08-02 08:09:00,52.5,43.5,29.94,South,180,4.1,4.9,71,0.00,,,0.00,WUHU216TE923,2013-08-02 15:09:00,
2013-08-02 08:14:00,52.7,43.7,29.94,SW,225,3.5,4.9,71,0.00,,,0.00,WUHU216TE923,2013-08-02 15:14:00,
2013-08-02 08:19:00,52.9,43.9,29.94,SSW,203,3.3,4.6,71,0.00,,,0.00,WUHU216TE923,2013-08-02 15:19:00,
2013-08-02 08:24:00,53.2,44.1,29.94,WSW,248,3.1,4.4,71,0.00,,,0.00,WUHU216TE923,2013-08-02 15:24:00,
2013-08-02 08:29:00,53.4,44.3,29.94,WSW,248,3.0,9.1,71,0.00,,,0.00,WUHU216TE923,2013-08-02 15:29:00,
2013-08-02 08:34:00,53.8,44.4,29.94,SSE,158,2.7,9.1,70,0.00,,,0.00,WUHU216TE923,2013-08-02 15:34:00,
2013-08-02 08:39:00,54.1,44.6,29.94,NE,45,2.9,5.3,70,0.00,,,0.00,WUHU216TE923,2013-08-02 15:39:00,
2013-08-02 08:44:00,54.1,44.3,29.94,South,180,3.6,5.6,69,0.00,,,0.00,WUHU216TE923,2013-08-02 15:44:00,
2013-08-02 08:49:00,54.3,44.5,29.94,WSW,248,3.6,5.6,69,0.00,,,0.00,WUHU216TE923,2013-08-02 15:49:00,
2013-08-02 08:54:00,54.7,44.8,29.94,South,180,2.9,3.9,69,0.00,,,0.00,WUHU216TE923,2013-08-02 15:54:00,
2013-08-02 08:59:00,54.9,44.7,29.95,SE,135,2.8,2.9,68,0.00,,,0.00,WUHU216TE923,2013-08-02 15:59:00,
2013-08-02 09:04:00,55.2,44.9,29.95,South,180,3.0,4.8,68,0.00,,,0.00,WUHU216TE923,2013-08-02 16:04:00,
2013-08-02 09:09:00,55.4,44.8,29.95,SSE,158,3.3,4.8,67,0.00,,,0.00,WUHU216TE923,2013-08-02 16:09:00,
2013-08-02 09:14:00,55.9,44.8,29.95,NNE,23,3.4,4.7,66,0.00,,,0.00,WUHU216TE923,2013-08-02 16:14:00,
2013-08-02 09:19:00,56.1,45.0,29.95,SW,225,3.5,5.6,66,0.00,,,0.00,WUHU216TE923,2013-08-02 16:19:00,
2013-08-02 09:24:00,56.3,44.8,29.95,West,270,3.5,5.6,65,0.00,,,0.00,WUHU216TE923,2013-08-02 16:24:00,
2013-08-02 09:29:00,56.5,45.0,29.95,South,180,3.2,4.7,65,0.00,,,0.00,WUHU216TE923,2013-08-02 16:29:00,
2013-08-02 09:34:00,57.0,45.5,29.95,South,180,2.5,4.7,65,0.00,,,0.00,WUHU216TE923,2013-08-02 16:34:00,
2013-08-02 09:39:00,57.2,44.8,29.94,South,180,2.7,5.5,63,0.00,,,0.00,WUHU216TE923,2013-08-02 16:39:00,
2013-08-02 09:44:00,57.7,45.7,29.94,NE,45,2.3,5.5,64,0.00,,,0.00,WUHU216TE923,2013-08-02 16:44:00,
2013-08-02 09:49:00,58.1,45.3,29.94,South,180,2.4,2.4,62,0.00,,,0.00,WUHU216TE923,2013-08-02 16:49:00,
2013-08-02 09:54:00,58.1,44.4,29.94,SSE,158,2.9,2.9,60,0.00,,,0.00,WUHU216TE923,2013-08-02 16:54:00,
2013-08-02 09:59:00,58.5,44.8,29.94,East,90,2.2,2.9,60,0.00,,,0.00,WUHU216TE923,2013-08-02 16:59:00,
2013-08-02 10:04:00,58.8,45.1,29.94,WSW,248,1.2,2.2,60,0.00,,,0.00,WUHU216TE923,2013-08-02 17:04:00,
2013-08-02 10:11:00,59.2,45.4,29.94,West,270,0.9,1.9,60,0.00,,,0.00,WUHU216TE923,2013-08-02 17:11:00,
2013-08-02 10:20:00,59.4,45.2,29.94,SE,135,1.2,2.0,59,0.00,,,0.00,WUHU216TE923,2013-08-02 17:20:00,
2013-08-02 10:25:00,59.7,45.5,29.94,NNE,23,1.0,1.3,59,0.00,,,0.00,WUHU216TE923,2013-08-02 17:25:00,
2013-08-02 10:30:00,59.7,45.5,29.94,NNE,23,1.0,1.3,59,0.00,,,0.00,WUHU216TE923,2013-08-02 17:30:00,
2013-08-02 10:40:00,60.6,46.3,29.94,SE,135,0.9,1.3,59,0.00,,,0.00,WUHU216TE923,2013-08-02 17:40:00,
2013-08-02 10:45:00,61.0,45.3,29.94,ESE,113,0.8,2.8,56,0.00,,,0.00,WUHU216TE923,2013-08-02 17:45:00,
2013-08-02 10:50:00,61.0,45.3,29.94,ESE,113,0.8,2.8,56,0.00,,,0.00,WUHU216TE923,2013-08-02 17:50:00,
2013-08-02 10:55:00,61.7,45.9,29.93,ESE,113,0.9,1.6,56,0.00,,,0.00,WUHU216TE923,2013-08-02 17:55:00,
2013-08-02 11:00:00,61.7,45.9,29.93,ESE,113,0.9,1.6,56,0.00,,,0.00,WUHU216TE923,2013-08-02 18:00:00,
2013-08-02 11:05:00,62.2,45.9,29.93,NNW,338,1.3,2.6,55,0.00,,,0.00,WUHU216TE923,2013-08-02 18:05:00,
2013-08-02 11:10:00,62.2,45.9,29.93,NNW,338,1.3,2.6,55,0.00,,,0.00,WUHU216TE923,2013-08-02 18:10:00,
2013-08-02 11:15:00,62.6,45.8,29.93,North,0,1.1,1.2,54,0.00,,,0.00,WUHU216TE923,2013-08-02 18:15:00,
2013-08-02 11:20:00,62.6,45.8,29.93,North,0,1.1,1.2,54,0.00,,,0.00,WUHU216TE923,2013-08-02 18:20:00,
2013-08-02 11:25:00,63.1,46.3,29.93,SW,225,1.3,2.2,54,0.00,,,0.00,WUHU216TE923,2013-08-02 18:25:00,
2013-08-02 11:30:00,63.1,46.3,29.93,SW,225,1.3,2.2,54,0.00,,,0.00,WUHU216TE923,2013-08-02 18:30:00,
2013-08-02 11:35:00,63.9,46.0,29.93,NNE,23,1.5,2.7,52,0.00,,,0.00,WUHU216TE923,2013-08-02 18:35:00,
2013-08-02 11:40:00,63.9,46.0,29.93,NNE,23,1.5,2.7,52,0.00,,,0.00,WUHU216TE923,2013-08-02 18:40:00,
2013-08-02 11:45:00,64.2,45.7,29.93,ENE,68,1.3,2.0,51,0.00,,,0.00,WUHU216TE923,2013-08-02 18:45:00,
2013-08-02 11:50:00,64.2,45.7,29.93,ENE,68,1.3,2.0,51,0.00,,,0.00,WUHU216TE923,2013-08-02 18:50:00,
2013-08-02 11:55:00,64.8,45.8,29.93,NE,45,1.3,3.2,50,0.00,,,0.00,WUHU216TE923,2013-08-02 18:55:00,
2013-08-02 12:00:00,64.8,45.8,29.93,NE,45,1.3,3.2,50,0.00,,,0.00,WUHU216TE923,2013-08-02 19:00:00,
2013-08-02 12:05:00,64.9,45.8,29.93,SSE,158,1.1,2.3,50,0.00,,,0.00,WUHU216TE923,2013-08-02 19:05:00,
2013-08-02 12:10:00,64.9,45.8,29.93,SSE,158,1.1,2.3,50,0.00,,,0.00,WUHU216TE923,2013-08-02 19:10:00,
2013-08-02 12:15:00,64.9,45.8,29.93,NE,45,2.1,3.0,50,0.00,,,0.00,WUHU216TE923,2013-08-02 19:15:00,
2013-08-02 12:21:00,64.9,45.8,29.93,NE,45,2.1,3.0,50,0.00,,,0.00,WUHU216TE923,2013-08-02 19:21:00,
2013-08-02 12:25:00,65.5,45.3,29.93,West,270,2.3,3.8,48,0.00,,,0.00,WUHU216TE923,2013-08-02 19:25:00,
2013-08-02 12:31:00,65.5,45.3,29.93,West,270,2.3,3.8,48,0.00,,,0.00,WUHU216TE923,2013-08-02 19:31:00,
2013-08-02 12:35:00,65.8,46.1,29.92,ENE,68,1.9,3.9,49,0.00,,,0.00,WUHU216TE923,2013-08-02 19:35:00,
2013-08-02 12:40:00,65.8,46.1,29.92,ENE,68,1.9,3.9,49,0.00,,,0.00,WUHU216TE923,2013-08-02 19:40:00,
2013-08-02 12:46:00,66.4,45.5,29.92,SE,135,1.9,2.4,47,0.00,,,0.00,WUHU216TE923,2013-08-02 19:46:00,
2013-08-02 12:50:00,66.4,45.5,29.92,SE,135,1.9,2.4,47,0.00,,,0.00,WUHU216TE923,2013-08-02 19:50:00,
2013-08-02 12:56:00,66.4,45.5,29.92,NNW,338,1.5,4.7,47,0.00,,,0.00,WUHU216TE923,2013-08-02 19:56:00,
2013-08-02 13:01:00,66.4,45.5,29.92,NNW,338,1.5,4.7,47,0.00,,,0.00,WUHU216TE923,2013-08-02 20:01:00,
2013-08-02 13:06:00,66.7,46.4,29.92,NW,315,1.7,1.9,48,0.00,,,0.00,WUHU216TE923,2013-08-02 20:06:00,
2013-08-02 13:11:00,66.7,46.4,29.92,NW,315,1.7,1.9,48,0.00,,,0.00,WUHU216TE923,2013-08-02 20:11:00,
2013-08-02 13:16:00,66.7,45.2,29.91,ENE,68,2.4,3.6,46,0.00,,,0.00,WUHU216TE923,2013-08-02 20:16:00,
2013-08-02 13:21:00,66.7,45.2,29.91,ENE,68,2.4,3.6,46,0.00,,,0.00,WUHU216TE923,2013-08-02 20:21:00,
2013-08-02 13:26:00,67.1,45.6,29.91,ENE,68,1.7,2.2,46,0.00,,,0.00,WUHU216TE923,2013-08-02 20:26:00,
2013-08-02 13:31:00,67.1,45.6,29.91,ENE,68,1.7,2.2,46,0.00,,,0.00,WUHU216TE923,2013-08-02 20:31:00,
2013-08-02 13:36:00,67.5,46.0,29.92,West,270,1.8,4.0,46,0.00,,,0.00,WUHU216TE923,2013-08-02 20:36:00,
2013-08-02 13:41:00,67.5,46.0,29.92,West,270,1.8,4.0,46,0.00,,,0.00,WUHU216TE923,2013-08-02 20:41:00,
2013-08-02 13:45:00,67.8,45.6,29.92,NNW,338,2.0,5.4,45,0.00,,,0.00,WUHU216TE923,2013-08-02 20:45:00,
2013-08-02 13:51:00,67.8,45.6,29.92,NNW,338,2.0,5.4,45,0.00,,,0.00,WUHU216TE923,2013-08-02 20:51:00,
2013-08-02 13:56:00,68.0,44.0,29.91,NW,315,2.8,4.5,42,0.00,,,0.00,WUHU216TE923,2013-08-02 20:56:00,
2013-08-02 14:01:00,68.0,44.0,29.91,NW,315,2.8,4.5,42,0.00,,,0.00,WUHU216TE923,2013-08-02 21:01:00,
2013-08-02 14:06:00,68.2,44.8,29.91,NW,315,2.1,2.6,43,0.00,,,0.00,WUHU216TE923,2013-08-02 21:06:00,
2013-08-02 14:11:00,68.2,44.8,29.91,NW,315,2.1,2.6,43,0.00,,,0.00,WUHU216TE923,2013-08-02 21:11:00,
2013-08-02 14:16:00,68.9,44.1,29.91,NE,45,2.5,3.5,41,0.00,,,0.00,WUHU216TE923,2013-08-02 21:16:00,
2013-08-02 14:21:00,68.9,44.1,29.91,NE,45,2.5,3.5,41,0.00,,,0.00,WUHU216TE923,2013-08-02 21:21:00,
2013-08-02 14:26:00,69.4,45.2,29.91,NW,315,2.4,4.0,42,0.00,,,0.00,WUHU216TE923,2013-08-02 21:26:00,
2013-08-02 14:31:00,69.4,45.2,29.91,NW,315,2.4,4.0,42,0.00,,,0.00,WUHU216TE923,2013-08-02 21:31:00,
2013-08-02 14:36:00,69.6,43.4,29.89,NE,45,1.6,5.0,39,0.00,,,0.00,WUHU216TE923,2013-08-02 21:36:00,
2013-08-02 14:41:00,69.6,43.4,29.89,NE,45,1.6,5.0,39,0.00,,,0.00,WUHU216TE923,2013-08-02 21:41:00,
2013-08-02 14:46:00,69.8,42.2,29.89,NNE,23,3.0,3.8,37,0.00,,,0.00,WUHU216TE923,2013-08-02 21:46:00,
2013-08-02 14:51:00,69.8,42.2,29.89,NNE,23,3.0,3.8,37,0.00,,,0.00,WUHU216TE923,2013-08-02 21:51:00,
2013-08-02 14:56:00,69.8,42.9,29.90,ENE,68,1.7,4.3,38,0.00,,,0.00,WUHU216TE923,2013-08-02 21:56:00,
2013-08-02 15:01:00,69.8,42.9,29.90,ENE,68,1.7,4.3,38,0.00,,,0.00,WUHU216TE923,2013-08-02 22:01:00,
2013-08-02 15:06:00,70.2,43.3,29.90,North,0,2.6,5.8,38,0.00,,,0.00,WUHU216TE923,2013-08-02 22:06:00,
2013-08-02 15:11:00,70.2,43.3,29.90,North,0,2.6,5.8,38,0.00,,,0.00,WUHU216TE923,2013-08-02 22:11:00,
2013-08-02 15:16:00,70.3,42.6,29.89,NNE,23,1.9,3.2,37,0.00,,,0.00,WUHU216TE923,2013-08-02 22:16:00,
2013-08-02 15:21:00,70.3,42.6,29.89,NNE,23,1.9,3.2,37,0.00,,,0.00,WUHU216TE923,2013-08-02 22:21:00,
2013-08-02 15:26:00,70.7,41.5,29.89,NNE,23,2.1,4.1,35,0.00,,,0.00,WUHU216TE923,2013-08-02 22:26:00,
2013-08-02 15:31:00,70.7,41.5,29.89,NNE,23,2.1,4.1,35,0.00,,,0.00,WUHU216TE923,2013-08-02 22:31:00,
2013-08-02 15:36:00,71.2,41.2,29.88,NE,45,2.1,4.3,34,0.00,,,0.00,WUHU216TE923,2013-08-02 22:36:00,
2013-08-02 15:41:00,71.2,41.2,29.88,NE,45,2.1,4.3,34,0.00,,,0.00,WUHU216TE923,2013-08-02 22:41:00,
2013-08-02 15:46:00,71.8,40.2,29.88,NNE,23,1.9,3.3,32,0.00,,,0.00,WUHU216TE923,2013-08-02 22:46:00,
2013-08-02 15:51:00,71.8,40.2,29.88,NNE,23,1.9,3.3,32,0.00,,,0.00,WUHU216TE923,2013-08-02 22:51:00,
2013-08-02 15:56:00,72.1,40.4,29.88,South,180,1.6,3.3,32,0.00,,,0.00,WUHU216TE923,2013-08-02 22:56:00,
2013-08-02 16:01:00,72.1,40.4,29.88,South,180,1.6,3.3,32,0.00,,,0.00,WUHU216TE923,2013-08-02 23:01:00,
2013-08-02 16:06:00,72.3,40.6,29.88,NW,315,1.8,3.5,32,0.00,,,0.00,WUHU216TE923,2013-08-02 23:06:00,
2013-08-02 16:11:00,72.3,40.6,29.88,NW,315,1.8,3.5,32,0.00,,,0.00,WUHU216TE923,2013-08-02 23:11:00,
2013-08-02 16:16:00,72.1,39.6,29.88,West,270,2.1,3.0,31,0.00,,,0.00,WUHU216TE923,2013-08-02 23:16:00,
2013-08-02 16:26:00,71.8,39.3,29.88,ENE,68,1.6,1.9,31,0.00,,,0.00,WUHU216TE923,2013-08-02 23:26:00,
2013-08-02 16:31:00,71.8,39.3,29.88,ENE,68,1.6,1.9,31,0.00,,,0.00,WUHU216TE923,2013-08-02 23:31:00,
2013-08-02 16:36:00,70.9,39.4,29.88,SW,225,1.0,2.2,32,0.00,,,0.00,WUHU216TE923,2013-08-02 23:36:00,
2013-08-02 16:41:00,70.9,39.4,29.88,SW,225,1.0,2.2,32,0.00,,,0.00,WUHU216TE923,2013-08-02 23:41:00,
2013-08-02 16:46:00,70.7,38.4,29.88,ENE,68,1.1,1.1,31,0.00,,,0.00,WUHU216TE923,2013-08-02 23:46:00,
2013-08-02 16:51:00,70.7,38.4,29.88,ENE,68,1.1,1.1,31,0.00,,,0.00,WUHU216TE923,2013-08-02 23:51:00,
2013-08-02 16:56:00,70.2,38.0,29.88,NNW,338,1.7,3.6,31,0.00,,,0.00,WUHU216TE923,2013-08-02 23:56:00,
2013-08-02 17:01:00,70.2,38.0,29.88,NNW,338,1.7,3.6,31,0.00,,,0.00,WUHU216TE923,2013-08-03 00:01:00,
2013-08-02 17:06:00,69.8,36.8,29.88,NE,45,2.2,3.6,30,0.00,,,0.00,WUHU216TE923,2013-08-03 00:06:00,
2013-08-02 17:11:00,69.8,36.8,29.88,NE,45,2.2,3.6,30,0.00,,,0.00,WUHU216TE923,2013-08-03 00:11:00,
2013-08-02 17:16:00,69.1,37.0,29.88,NNE,23,1.5,1.8,31,0.00,,,0.00,WUHU216TE923,2013-08-03 00:16:00,
2013-08-02 17:26:00,69.1,38.6,29.88,NNW,338,1.9,5.4,33,0.00,,,0.00,WUHU216TE923,2013-08-03 00:26:00,
2013-08-02 17:31:00,69.1,38.6,29.88,NNW,338,1.9,5.4,33,0.00,,,0.00,WUHU216TE923,2013-08-03 00:31:00,
2013-08-02 17:36:00,68.4,39.5,29.88,NNE,23,3.8,5.1,35,0.00,,,0.00,WUHU216TE923,2013-08-03 00:36:00,
2013-08-02 17:41:00,68.4,39.5,29.88,NNE,23,3.8,5.1,35,0.00,,,0.00,WUHU216TE923,2013-08-03 00:41:00,
2013-08-02 17:46:00,67.8,39.7,29.88,NNW,338,4.2,7.4,36,0.00,,,0.00,WUHU216TE923,2013-08-03 00:46:00,
2013-08-02 17:51:00,67.8,39.7,29.88,NNW,338,4.2,7.4,36,0.00,,,0.00,WUHU216TE923,2013-08-03 00:51:00,
2013-08-02 17:56:00,67.3,40.0,29.89,NNW,338,4.8,5.8,37,0.00,,,0.00,WUHU216TE923,2013-08-03 00:56:00,
2013-08-02 18:01:00,67.3,40.0,29.89,NNW,338,4.8,5.8,37,0.00,,,0.00,WUHU216TE923,2013-08-03 01:01:00,
2013-08-02 18:06:00,66.9,39.6,29.89,NNE,23,3.6,4.6,37,0.00,,,0.00,WUHU216TE923,2013-08-03 01:06:00,
2013-08-02 18:11:00,66.9,39.6,29.89,NNE,23,3.6,4.6,37,0.00,,,0.00,WUHU216TE923,2013-08-03 01:11:00,
2013-08-02 18:16:00,66.9,39.6,29.89,NW,315,3.4,3.6,37,0.00,,,0.00,WUHU216TE923,2013-08-03 01:16:00,
2013-08-02 18:21:00,66.9,39.6,29.89,NW,315,3.4,3.6,37,0.00,,,0.00,WUHU216TE923,2013-08-03 01:21:00,
2013-08-02 18:26:00,66.2,39.7,29.89,NNE,23,3.6,4.9,38,0.00,,,0.00,WUHU216TE923,2013-08-03 01:26:00,
2013-08-02 18:31:00,66.2,39.7,29.89,NNE,23,3.6,4.9,38,0.00,,,0.00,WUHU216TE923,2013-08-03 01:31:00,
2013-08-02 18:36:00,65.7,39.9,29.89,North,0,3.8,6.1,39,0.00,,,0.00,WUHU216TE923,2013-08-03 01:36:00,
2013-08-02 18:41:00,65.7,39.9,29.89,North,0,3.8,6.1,39,0.00,,,0.00,WUHU216TE923,2013-08-03 01:41:00,
2013-08-02 18:46:00,65.7,40.6,29.89,ENE,68,4.4,6.9,40,0.00,,,0.00,WUHU216TE923,2013-08-03 01:46:00,
2013-08-02 18:51:00,65.7,40.6,29.89,ENE,68,4.4,6.9,40,0.00,,,0.00,WUHU216TE923,2013-08-03 01:51:00,
2013-08-02 18:56:00,66.0,40.2,29.89,South,180,3.6,4.5,39,0.00,,,0.00,WUHU216TE923,2013-08-03 01:56:00,
2013-08-02 19:01:00,66.0,40.2,29.89,South,180,3.6,4.5,39,0.00,,,0.00,WUHU216TE923,2013-08-03 02:01:00,
2013-08-02 19:06:00,66.4,39.2,29.89,NNW,338,3.4,4.7,37,0.00,,,0.00,WUHU216TE923,2013-08-03 02:06:00,
2013-08-02 19:11:00,66.4,39.2,29.89,NNW,338,3.4,4.7,37,0.00,,,0.00,WUHU216TE923,2013-08-03 02:11:00,
2013-08-02 19:16:00,66.2,39.0,29.89,ENE,68,3.1,3.9,37,0.00,,,0.00,WUHU216TE923,2013-08-03 02:16:00,
2013-08-02 19:21:00,66.2,39.0,29.89,ENE,68,3.1,3.9,37,0.00,,,0.00,WUHU216TE923,2013-08-03 02:21:00,
2013-08-02 19:26:00,66.0,38.8,29.89,NNW,338,3.8,6.6,37,0.00,,,0.00,WUHU216TE923,2013-08-03 02:26:00,
2013-08-02 19:31:00,66.0,38.8,29.89,NNW,338,3.8,6.6,37,0.00,,,0.00,WUHU216TE923,2013-08-03 02:31:00,
2013-08-02 19:36:00,65.7,38.5,29.90,NE,45,5.3,8.2,37,0.00,,,0.00,WUHU216TE923,2013-08-03 02:36:00,
2013-08-02 19:41:00,65.7,38.5,29.90,NE,45,5.3,8.2,37,0.00,,,0.00,WUHU216TE923,2013-08-03 02:41:00,
2013-08-02 19:46:00,65.5,38.4,29.90,NNW,338,4.3,8.0,37,0.00,,,0.00,WUHU216TE923,2013-08-03 02:46:00,
2013-08-02 19:51:00,65.1,38.0,29.90,North,0,4.1,4.3,37,0.00,,,0.00,WUHU216TE923,2013-08-03 02:51:00,
2013-08-02 19:56:00,64.9,37.8,29.90,NNE,23,4.2,5.4,37,0.00,,,0.00,WUHU216TE923,2013-08-03 02:56:00,
2013-08-02 20:01:00,64.6,37.6,29.90,NNW,338,3.7,5.4,37,0.00,,,0.00,WUHU216TE923,2013-08-03 03:01:00,
2013-08-02 20:06:00,64.4,37.4,29.90,NNW,338,2.8,3.7,37,0.00,,,0.00,WUHU216TE923,2013-08-03 03:06:00,
2013-08-02 20:12:00,64.2,37.9,29.90,NNE,23,2.3,2.9,38,0.00,,,0.00,WUHU216TE923,2013-08-03 03:12:00,
2013-08-02 20:17:00,64.0,37.7,29.90,NW,315,2.4,2.9,38,0.00,,,0.00,WUHU216TE923,2013-08-03 03:17:00,
2013-08-02 20:22:00,63.9,37.6,29.90,NNW,338,1.8,2.4,38,0.00,,,0.00,WUHU216TE923,2013-08-03 03:22:00,
2013-08-02 20:27:00,63.7,38.1,29.90,NNW,338,1.5,1.8,39,0.00,,,0.00,WUHU216TE923,2013-08-03 03:27:00,
2013-08-02 20:32:00,63.5,38.6,29.90,SE,135,1.5,2.2,40,0.00,,,0.00,WUHU216TE923,2013-08-03 03:32:00,
2013-08-02 20:37:00,63.3,38.4,29.90,NW,315,1.3,2.2,40,0.00,,,0.00,WUHU216TE923,2013-08-03 03:37:00,
2013-08-02 20:42:00,63.0,38.8,29.90,NNW,338,1.0,1.8,41,0.00,,,0.00,WUHU216TE923,2013-08-03 03:42:00,
2013-08-02 20:47:00,62.8,39.9,29.90,WNW,293,1.0,2.5,43,0.00,,,0.00,WUHU216TE923,2013-08-03 03:47:00,
2013-08-02 20:52:00,62.8,39.9,29.90,WSW,248,1.2,2.5,43,0.00,,,0.00,WUHU216TE923,2013-08-03 03:52:00,
2013-08-02 20:57:00,62.6,39.7,29.91,West,270,1.5,1.8,43,0.00,,,0.00,WUHU216TE923,2013-08-03 03:57:00,
2013-08-02 21:02:00,62.6,40.3,29.91,West,270,1.5,2.4,44,0.00,,,0.00,WUHU216TE923,2013-08-03 04:02:00,
2013-08-02 21:07:00,62.6,40.3,29.91,West,270,1.4,2.8,44,0.00,,,0.00,WUHU216TE923,2013-08-03 04:07:00,
2013-08-02 21:12:00,62.4,40.1,29.91,ESE,113,1.4,3.9,44,0.00,,,0.00,WUHU216TE923,2013-08-03 04:12:00,
2013-08-02 21:17:00,62.2,39.9,29.93,WNW,293,1.7,3.9,44,0.00,,,0.00,WUHU216TE923,2013-08-03 04:17:00,
2013-08-02 21:22:00,62.1,39.8,29.93,NE,45,1.4,1.7,44,0.00,,,0.00,WUHU216TE923,2013-08-03 04:22:00,
2013-08-02 21:27:00,62.1,39.8,29.93,ENE,68,0.7,1.4,44,0.00,,,0.00,WUHU216TE923,2013-08-03 04:27:00,
2013-08-02 21:32:00,61.7,40.1,29.93,ENE,68,0.5,0.7,45,0.00,,,0.00,WUHU216TE923,2013-08-03 04:32:00,
2013-08-02 21:37:00,61.5,39.9,29.92,NW,315,0.2,0.5,45,0.00,,,0.00,WUHU216TE923,2013-08-03 04:37:00,
2013-08-02 21:42:00,61.5,39.9,29.92,NW,315,0.2,1.4,45,0.00,,,0.00,WUHU216TE923,2013-08-03 04:42:00,
2013-08-02 21:47:00,61.3,39.7,29.92,NE,45,0.7,2.5,45,0.00,,,0.00,WUHU216TE923,2013-08-03 04:47:00,
2013-08-02 21:52:00,61.2,39.6,29.92,NW,315,1.0,2.5,45,0.00,,,0.00,WUHU216TE923,2013-08-03 04:52:00,
2013-08-02 21:57:00,61.0,40.0,29.93,NNW,338,1.2,1.7,46,0.00,,,0.00,WUHU216TE923,2013-08-03 04:57:00,
2013-08-02 22:02:00,61.0,40.0,29.93,NE,45,1.0,1.7,46,0.00,,,0.00,WUHU216TE923,2013-08-03 05:02:00,
2013-08-02 22:07:00,60.8,40.4,29.93,NNE,23,0.6,1.0,47,0.00,,,0.00,WUHU216TE923,2013-08-03 05:07:00,
2013-08-02 22:12:00,60.6,40.8,29.93,NNW,338,0.5,2.2,48,0.00,,,0.00,WUHU216TE923,2013-08-03 05:12:00,
2013-08-02 22:17:00,60.6,41.3,29.93,SSW,203,0.4,2.2,49,0.00,,,0.00,WUHU216TE923,2013-08-03 05:17:00,
2013-08-02 22:22:00,60.4,41.7,29.93,NNW,338,0.3,0.4,50,0.00,,,0.00,WUHU216TE923,2013-08-03 05:22:00,
2013-08-02 22:27:00,60.3,42.1,29.93,WSW,248,0.0,0.3,51,0.00,,,0.00,WUHU216TE923,2013-08-03 05:27:00,
2013-08-02 22:32:00,59.9,42.3,29.93,West,270,0.0,0.0,52,0.00,,,0.00,WUHU216TE923,2013-08-03 05:32:00,
2013-08-02 22:37:00,59.7,42.6,29.93,ESE,113,0.1,0.1,53,0.00,,,0.00,WUHU216TE923,2013-08-03 05:37:00,
2013-08-02 22:42:00,59.5,42.9,29.93,SW,225,0.1,0.1,54,0.00,,,0.00,WUHU216TE923,2013-08-03 05:42:00,
2013-08-02 22:47:00,59.5,42.9,29.93,WSW,248,0.0,0.1,54,0.00,,,0.00,WUHU216TE923,2013-08-03 05:47:00,
2013-08-02 22:52:00,59.4,42.8,29.93,SW,225,0.2,1.4,54,0.00,,,0.00,WUHU216TE923,2013-08-03 05:52:00,
2013-08-02 22:57:00,59.2,43.1,29.93,WNW,293,0.3,1.4,55,0.00,,,0.00,WUHU216TE923,2013-08-03 05:57:00,
2013-08-02 23:02:00,59.0,42.9,29.93,NW,315,0.8,2.3,55,0.00,,,0.00,WUHU216TE923,2013-08-03 06:02:00,
2013-08-02 23:07:00,59.2,43.1,29.93,WNW,293,1.2,2.3,55,0.00,,,0.00,WUHU216TE923,2013-08-03 06:07:00,
2013-08-02 23:12:00,59.2,43.1,29.93,NW,315,1.4,1.6,55,0.00,,,0.00,WUHU216TE923,2013-08-03 06:12:00,
2013-08-02 23:17:00,59.2,43.1,29.93,WNW,293,1.5,3.7,55,0.00,,,0.00,WUHU216TE923,2013-08-03 06:17:00,
2013-08-02 23:22:00,59.2,43.1,29.93,West,270,1.7,3.7,55,0.00,,,0.00,WUHU216TE923,2013-08-03 06:22:00,
2013-08-02 23:27:00,59.2,43.1,29.93,NW,315,1.8,2.8,55,0.00,,,0.00,WUHU216TE923,2013-08-03 06:27:00,
2013-08-02 23:32:00,59.2,43.1,29.93,NW,315,1.4,1.8,55,0.00,,,0.00,WUHU216TE923,2013-08-03 06:32:00,
2013-08-02 23:37:00,59.0,43.4,29.93,NW,315,1.4,1.9,56,0.00,,,0.00,WUHU216TE923,2013-08-03 06:37:00,
2013-08-02 23:42:00,59.0,43.4,29.93,WNW,293,1.6,1.9,56,0.00,,,0.00,WUHU216TE923,2013-08-03 06:42:00,
2013-08-02 23:47:00,59.0,43.4,29.93,West,270,1.7,1.8,56,0.00,,,0.00,WUHU216TE923,2013-08-03 06:47:00,
2013-08-02 23:52:00,58.8,43.2,29.93,WNW,293,1.0,1.8,56,0.00,,,0.00,WUHU216TE923,2013-08-03 06:52:00,
2013-08-02 23:57:00,58.6,43.0,29.93,NNW,338,0.5,1.4,56,0.00,,,0.00,WUHU216TE923,2013-08-03 06:57:00,